sensor_id;sensor_type;location;lat;lon;timestamp;pressure;altitude;pressure_sealevel;temperature
33877;BMP180;20166;51.738;7.158;2023-12-29T13:48:48;100140.00;;;9.90
33877;BMP180;20166;51.738;7.158;2023-12-29T13:51:36;100145.00;;;10.00
33877;BMP180;20166;51.738;7.158;2023-12-29T13:54:22;100146.00;;;10.00
33877;BMP180;20166;51.738;7.158;2023-12-29T13:57:08;100132.00;;;10.10
33877;BMP180;20166;51.738;7.158;2023-12-29T13:59:58;100127.00;;;10.20
33877;BMP180;20166;51.738;7.158;2023-12-29T14:03:01;100125.00;;;10.20
33877;BMP180;20166;51.738;7.158;2023-12-29T14:05:55;100124.00;;;10.30
33877;BMP180;20166;51.738;7.158;2023-12-29T14:08:45;100121.00;;;10.30
33877;BMP180;20166;51.738;7.158;2023-12-29T14:11:31;100115.00;;;10.30
33877;BMP180;20166;51.738;7.158;2023-12-29T14:14:21;100117.00;;;10.30
33877;BMP180;20166;51.738;7.158;2023-12-29T14:17:08;100129.00;;;10.30
33877;BMP180;20166;51.738;7.158;2023-12-29T14:19:56;100120.00;;;10.30
33877;BMP180;20166;51.738;7.158;2023-12-29T14:22:47;100124.00;;;10.30
33877;BMP180;20166;51.738;7.158;2023-12-29T14:25:34;100122.00;;;10.30
33877;BMP180;20166;51.738;7.158;2023-12-29T14:28:20;100122.00;;;10.20
33877;BMP180;20166;51.738;7.158;2023-12-29T14:31:07;100121.00;;;10.20
33877;BMP180;20166;51.738;7.158;2023-12-29T14:33:53;100119.00;;;10.20
33877;BMP180;20166;51.738;7.158;2023-12-29T14:36:41;100140.00;;;10.20
33877;BMP180;20166;51.738;7.158;2023-12-29T14:39:29;100122.00;;;10.20
33877;BMP180;20166;51.738;7.158;2023-12-29T14:42:15;100123.00;;;10.20
33877;BMP180;20166;51.738;7.158;2023-12-29T14:45:02;100109.00;;;10.00
33877;BMP180;20166;51.738;7.158;2023-12-29T14:47:50;100115.00;;;10.00
33877;BMP180;20166;51.738;7.158;2023-12-29T14:50:39;100123.00;;;10.00
33877;BMP180;20166;51.738;7.158;2023-12-29T14:53:30;100138.00;;;10.00
33877;BMP180;20166;51.738;7.158;2023-12-29T14:56:17;100119.00;;;10.00
33877;BMP180;20166;51.738;7.158;2023-12-29T14:59:04;100133.00;;;9.90
33877;BMP180;20166;51.738;7.158;2023-12-29T15:01:51;100133.00;;;10.00
33877;BMP180;20166;51.738;7.158;2023-12-29T15:04:38;100128.00;;;10.10
33877;BMP180;20166;51.738;7.158;2023-12-29T15:07:24;100131.00;;;10.00
33877;BMP180;20166;51.738;7.158;2023-12-29T15:10:15;100132.00;;;10.00
33877;BMP180;20166;51.738;7.158;2023-12-29T15:13:04;100138.00;;;10.10
33877;BMP180;20166;51.738;7.158;2023-12-29T15:15:52;100139.00;;;10.10
33877;BMP180;20166;51.738;7.158;2023-12-29T15:18:38;100136.00;;;10.10
33877;BMP180;20166;51.738;7.158;2023-12-29T15:21:24;100126.00;;;10.20
33877;BMP180;20166;51.738;7.158;2023-12-29T15:24:11;100119.00;;;10.10
33877;BMP180;20166;51.738;7.158;2023-12-29T15:26:57;100115.00;;;10.10
33877;BMP180;20166;51.738;7.158;2023-12-29T15:29:44;100111.00;;;10.10
33877;BMP180;20166;51.738;7.158;2023-12-29T15:32:31;100107.00;;;10.00
33877;BMP180;20166;51.738;7.158;2023-12-29T15:35:17;100100.00;;;10.10
33877;BMP180;20166;51.738;7.158;2023-12-29T15:38:04;100094.00;;;10.20
33877;BMP180;20166;51.738;7.158;2023-12-29T15:40:50;100086.00;;;10.20
33877;BMP180;20166;51.738;7.158;2023-12-29T15:43:36;100091.00;;;10.20
33877;BMP180;20166;51.738;7.158;2023-12-29T15:46:24;100086.00;;;10.20
33877;BMP180;20166;51.738;7.158;2023-12-29T15:49:10;100080.00;;;10.30
33877;BMP180;20166;51.738;7.158;2023-12-29T15:51:57;100070.00;;;10.30
33877;BMP180;20166;51.738;7.158;2023-12-29T15:54:43;100085.00;;;10.30
33877;BMP180;20166;51.738;7.158;2023-12-29T15:57:30;100077.00;;;10.30
33877;BMP180;20166;51.738;7.158;2023-12-29T16:00:16;100069.00;;;10.30
33877;BMP180;20166;51.738;7.158;2023-12-29T16:03:04;100077.00;;;10.30
33877;BMP180;20166;51.738;7.158;2023-12-29T16:05:51;100073.00;;;10.20
33877;BMP180;20166;51.738;7.158;2023-12-29T16:08:37;100088.00;;;10.20
33877;BMP180;20166;51.738;7.158;2023-12-29T16:11:24;100076.00;;;10.20
33877;BMP180;20166;51.738;7.158;2023-12-29T16:14:12;100074.00;;;10.30
33877;BMP180;20166;51.738;7.158;2023-12-29T16:16:58;100062.00;;;10.30
33877;BMP180;20166;51.738;7.158;2023-12-29T16:19:46;100068.00;;;10.30
33877;BMP180;20166;51.738;7.158;2023-12-29T16:22:32;100065.00;;;10.20
33877;BMP180;20166;51.738;7.158;2023-12-29T16:25:19;100090.00;;;10.30
33877;BMP180;20166;51.738;7.158;2023-12-29T16:28:05;100054.00;;;10.30
33877;BMP180;20166;51.738;7.158;2023-12-29T16:30:52;100059.00;;;10.30
33877;BMP180;20166;51.738;7.158;2023-12-29T16:33:39;100073.00;;;10.30
33877;BMP180;20166;51.738;7.158;2023-12-29T16:36:27;100066.00;;;10.30
33877;BMP180;20166;51.738;7.158;2023-12-29T16:39:14;100070.00;;;10.40
33877;BMP180;20166;51.738;7.158;2023-12-29T16:42:01;100074.00;;;10.40
33877;BMP180;20166;51.738;7.158;2023-12-29T16:44:50;100069.00;;;10.40
33877;BMP180;20166;51.738;7.158;2023-12-29T16:47:36;100068.00;;;10.40
33877;BMP180;20166;51.738;7.158;2023-12-29T16:50:23;100070.00;;;10.30
33877;BMP180;20166;51.738;7.158;2023-12-29T16:53:10;100075.00;;;10.40
33877;BMP180;20166;51.738;7.158;2023-12-29T16:55:56;100056.00;;;10.40
33877;BMP180;20166;51.738;7.158;2023-12-29T16:58:43;100052.00;;;10.40
33877;BMP180;20166;51.738;7.158;2023-12-29T17:01:29;100055.00;;;10.40
33877;BMP180;20166;51.738;7.158;2023-12-29T17:04:15;100044.00;;;10.50
33877;BMP180;20166;51.738;7.158;2023-12-29T17:07:02;100052.00;;;10.50
33877;BMP180;20166;51.738;7.158;2023-12-29T17:09:50;100027.00;;;10.50
33877;BMP180;20166;51.738;7.158;2023-12-29T17:12:36;100026.00;;;10.60
33877;BMP180;20166;51.738;7.158;2023-12-29T17:15:22;100037.00;;;10.60
33877;BMP180;20166;51.738;7.158;2023-12-29T17:18:09;100030.00;;;10.60
33877;BMP180;20166;51.738;7.158;2023-12-29T17:20:56;100027.00;;;10.60
33877;BMP180;20166;51.738;7.158;2023-12-29T17:23:42;100032.00;;;10.60
33877;BMP180;20166;51.738;7.158;2023-12-29T17:26:30;100038.00;;;10.70
33877;BMP180;20166;51.738;7.158;2023-12-29T17:29:16;100027.00;;;10.60
33877;BMP180;20166;51.738;7.158;2023-12-29T17:32:03;100029.00;;;10.60
33877;BMP180;20166;51.738;7.158;2023-12-29T17:34:49;100015.00;;;10.60
33877;BMP180;20166;51.738;7.158;2023-12-29T17:37:36;100034.00;;;10.60
33877;BMP180;20166;51.738;7.158;2023-12-29T17:40:22;100033.00;;;10.60
33877;BMP180;20166;51.738;7.158;2023-12-29T17:43:10;100026.00;;;10.70
33877;BMP180;20166;51.738;7.158;2023-12-29T17:45:56;100031.00;;;10.60
33877;BMP180;20166;51.738;7.158;2023-12-29T17:48:43;100041.00;;;10.70
33877;BMP180;20166;51.738;7.158;2023-12-29T17:51:30;100031.00;;;10.70
33877;BMP180;20166;51.738;7.158;2023-12-29T17:54:16;100029.00;;;10.60
33877;BMP180;20166;51.738;7.158;2023-12-29T17:57:03;100028.00;;;10.70
33877;BMP180;20166;51.738;7.158;2023-12-29T17:59:51;100029.00;;;10.70
33877;BMP180;20166;51.738;7.158;2023-12-29T18:02:37;100019.00;;;10.80
33877;BMP180;20166;51.738;7.158;2023-12-29T18:05:24;100023.00;;;10.80
33877;BMP180;20166;51.738;7.158;2023-12-29T18:08:10;100022.00;;;10.80
33877;BMP180;20166;51.738;7.158;2023-12-29T18:11:02;100027.00;;;10.80
33877;BMP180;20166;51.738;7.158;2023-12-29T18:13:49;100020.00;;;10.80
33877;BMP180;20166;51.738;7.158;2023-12-29T18:16:36;100025.00;;;10.80
33877;BMP180;20166;51.738;7.158;2023-12-29T18:19:23;100033.00;;;10.80
33877;BMP180;20166;51.738;7.158;2023-12-29T18:22:09;100027.00;;;10.80
33877;BMP180;20166;51.738;7.158;2023-12-29T18:24:57;100046.00;;;10.80
33877;BMP180;20166;51.738;7.158;2023-12-29T18:27:44;100050.00;;;10.80
33877;BMP180;20166;51.738;7.158;2023-12-29T18:30:30;100041.00;;;10.80
33877;BMP180;20166;51.738;7.158;2023-12-29T18:33:18;100025.00;;;10.80
33877;BMP180;20166;51.738;7.158;2023-12-29T18:36:06;100051.00;;;10.70
33877;BMP180;20166;51.738;7.158;2023-12-29T18:38:53;100057.00;;;10.60
33877;BMP180;20166;51.738;7.158;2023-12-29T18:41:40;100050.00;;;10.70
33877;BMP180;20166;51.738;7.158;2023-12-29T18:44:26;100059.00;;;10.60
33877;BMP180;20166;51.738;7.158;2023-12-29T18:47:14;100042.00;;;10.50
33877;BMP180;20166;51.738;7.158;2023-12-29T18:50:03;100041.00;;;10.50
33877;BMP180;20166;51.738;7.158;2023-12-29T18:52:49;100057.00;;;10.50
33877;BMP180;20166;51.738;7.158;2023-12-29T18:55:36;100051.00;;;10.50
33877;BMP180;20166;51.738;7.158;2023-12-29T18:58:26;100044.00;;;10.50
33877;BMP180;20166;51.738;7.158;2023-12-29T19:01:12;100055.00;;;10.50
33877;BMP180;20166;51.738;7.158;2023-12-29T19:03:58;100053.00;;;10.50
33877;BMP180;20166;51.738;7.158;2023-12-29T19:06:47;100040.00;;;10.50
33877;BMP180;20166;51.738;7.158;2023-12-29T19:09:33;100067.00;;;10.40
33877;BMP180;20166;51.738;7.158;2023-12-29T19:12:19;100080.00;;;10.50
33877;BMP180;20166;51.738;7.158;2023-12-29T19:15:06;100082.00;;;10.60
33877;BMP180;20166;51.738;7.158;2023-12-29T19:17:53;100101.00;;;10.50
33877;BMP180;20166;51.738;7.158;2023-12-29T19:20:39;100105.00;;;10.60
33877;BMP180;20166;51.738;7.158;2023-12-29T19:23:27;100103.00;;;10.50
33877;BMP180;20166;51.738;7.158;2023-12-29T19:26:18;100111.00;;;10.50
33877;BMP180;20166;51.738;7.158;2023-12-29T19:29:08;100100.00;;;10.50
33877;BMP180;20166;51.738;7.158;2023-12-29T19:31:54;100098.00;;;10.50
33877;BMP180;20166;51.738;7.158;2023-12-29T19:34:41;100099.00;;;10.50
33877;BMP180;20166;51.738;7.158;2023-12-29T19:37:28;100086.00;;;10.50
33877;BMP180;20166;51.738;7.158;2023-12-29T19:40:16;100094.00;;;10.60
33877;BMP180;20166;51.738;7.158;2023-12-29T19:43:02;100092.00;;;10.50
33877;BMP180;20166;51.738;7.158;2023-12-29T19:45:49;100100.00;;;10.50
33877;BMP180;20166;51.738;7.158;2023-12-29T19:48:35;100098.00;;;10.50
33877;BMP180;20166;51.738;7.158;2023-12-29T19:51:22;100114.00;;;10.40
33877;BMP180;20166;51.738;7.158;2023-12-29T19:54:09;100118.00;;;10.40
33877;BMP180;20166;51.738;7.158;2023-12-29T19:56:58;100112.00;;;10.40
33877;BMP180;20166;51.738;7.158;2023-12-29T19:59:44;100126.00;;;10.30
33877;BMP180;20166;51.738;7.158;2023-12-29T20:02:31;100125.00;;;10.20
33877;BMP180;20166;51.738;7.158;2023-12-29T20:05:18;100138.00;;;10.10
33877;BMP180;20166;51.738;7.158;2023-12-29T20:08:05;100149.00;;;10.10
33877;BMP180;20166;51.738;7.158;2023-12-29T20:10:51;100156.00;;;10.00
33877;BMP180;20166;51.738;7.158;2023-12-29T20:13:39;100150.00;;;10.00
33877;BMP180;20166;51.738;7.158;2023-12-29T20:16:26;100158.00;;;10.00
33877;BMP180;20166;51.738;7.158;2023-12-29T20:19:13;100159.00;;;10.00
33877;BMP180;20166;51.738;7.158;2023-12-29T20:21:59;100171.00;;;9.90
33877;BMP180;20166;51.738;7.158;2023-12-29T20:24:46;100170.00;;;9.90
33877;BMP180;20166;51.738;7.158;2023-12-29T20:27:32;100178.00;;;9.80
33877;BMP180;20166;51.738;7.158;2023-12-29T20:30:20;100176.00;;;9.70
33877;BMP180;20166;51.738;7.158;2023-12-29T20:33:06;100167.00;;;9.70
33877;BMP180;20166;51.738;7.158;2023-12-29T20:35:53;100174.00;;;9.70
33877;BMP180;20166;51.738;7.158;2023-12-29T20:38:39;100171.00;;;9.70
33877;BMP180;20166;51.738;7.158;2023-12-29T20:41:25;100178.00;;;9.70
33877;BMP180;20166;51.738;7.158;2023-12-29T20:44:12;100164.00;;;9.60
33877;BMP180;20166;51.738;7.158;2023-12-29T20:47:00;100178.00;;;9.60
33877;BMP180;20166;51.738;7.158;2023-12-29T20:49:46;100177.00;;;9.60
33877;BMP180;20166;51.738;7.158;2023-12-29T20:52:32;100169.00;;;9.60
33877;BMP180;20166;51.738;7.158;2023-12-29T20:55:19;100168.00;;;9.50
33877;BMP180;20166;51.738;7.158;2023-12-29T20:58:05;100170.00;;;9.50
33877;BMP180;20166;51.738;7.158;2023-12-29T21:00:51;100165.00;;;9.50
33877;BMP180;20166;51.738;7.158;2023-12-29T21:03:39;100171.00;;;9.50
33877;BMP180;20166;51.738;7.158;2023-12-29T21:06:26;100167.00;;;9.50
33877;BMP180;20166;51.738;7.158;2023-12-29T21:09:14;100161.00;;;9.50
33877;BMP180;20166;51.738;7.158;2023-12-29T21:12:02;100172.00;;;9.50
33877;BMP180;20166;51.738;7.158;2023-12-29T21:14:48;100185.00;;;9.50
33877;BMP180;20166;51.738;7.158;2023-12-29T21:17:34;100183.00;;;9.60
33877;BMP180;20166;51.738;7.158;2023-12-29T21:20:22;100186.00;;;9.50
33877;BMP180;20166;51.738;7.158;2023-12-29T21:23:08;100185.00;;;9.60
33877;BMP180;20166;51.738;7.158;2023-12-29T21:25:54;100179.00;;;9.70
33877;BMP180;20166;51.738;7.158;2023-12-29T21:28:42;100182.00;;;9.70
33877;BMP180;20166;51.738;7.158;2023-12-29T21:31:28;100172.00;;;9.70
33877;BMP180;20166;51.738;7.158;2023-12-29T21:34:17;100188.00;;;9.60
33877;BMP180;20166;51.738;7.158;2023-12-29T21:37:06;100183.00;;;9.70
33877;BMP180;20166;51.738;7.158;2023-12-29T21:39:52;100188.00;;;9.80
33877;BMP180;20166;51.738;7.158;2023-12-29T21:42:38;100184.00;;;9.70
33877;BMP180;20166;51.738;7.158;2023-12-29T21:45:24;100187.00;;;9.70
33877;BMP180;20166;51.738;7.158;2023-12-29T21:48:15;100198.00;;;9.70
33877;BMP180;20166;51.738;7.158;2023-12-29T21:51:02;100185.00;;;9.70
33877;BMP180;20166;51.738;7.158;2023-12-29T21:53:50;100187.00;;;9.70
33877;BMP180;20166;51.738;7.158;2023-12-29T21:56:37;100182.00;;;9.70
33877;BMP180;20166;51.738;7.158;2023-12-29T21:59:23;100187.00;;;9.70
33877;BMP180;20166;51.738;7.158;2023-12-29T22:02:10;100182.00;;;9.70
33877;BMP180;20166;51.738;7.158;2023-12-29T22:04:57;100188.00;;;9.70
33877;BMP180;20166;51.738;7.158;2023-12-29T22:07:43;100182.00;;;9.80
33877;BMP180;20166;51.738;7.158;2023-12-29T22:10:30;100171.00;;;9.80
33877;BMP180;20166;51.738;7.158;2023-12-29T22:13:17;100169.00;;;9.80
33877;BMP180;20166;51.738;7.158;2023-12-29T22:16:04;100174.00;;;9.70
33877;BMP180;20166;51.738;7.158;2023-12-29T22:18:50;100171.00;;;9.70
33877;BMP180;20166;51.738;7.158;2023-12-29T22:21:37;100189.00;;;9.70
33877;BMP180;20166;51.738;7.158;2023-12-29T22:24:23;100210.00;;;9.80
33877;BMP180;20166;51.738;7.158;2023-12-29T22:27:11;100198.00;;;9.80
33877;BMP180;20166;51.738;7.158;2023-12-29T22:29:57;100200.00;;;9.80
33877;BMP180;20166;51.738;7.158;2023-12-29T22:32:44;100202.00;;;9.70
33877;BMP180;20166;51.738;7.158;2023-12-29T22:35:30;100202.00;;;9.70
33877;BMP180;20166;51.738;7.158;2023-12-29T22:38:16;100214.00;;;9.60
33877;BMP180;20166;51.738;7.158;2023-12-29T22:41:05;100205.00;;;9.70
33877;BMP180;20166;51.738;7.158;2023-12-29T22:43:53;100213.00;;;9.70
33877;BMP180;20166;51.738;7.158;2023-12-29T22:46:39;100213.00;;;9.70
33877;BMP180;20166;51.738;7.158;2023-12-29T22:49:26;100211.00;;;9.70
33877;BMP180;20166;51.738;7.158;2023-12-29T22:52:12;100208.00;;;9.70
33877;BMP180;20166;51.738;7.158;2023-12-29T22:54:59;100228.00;;;9.70
33877;BMP180;20166;51.738;7.158;2023-12-29T22:57:45;100237.00;;;9.70
33877;BMP180;20166;51.738;7.158;2023-12-29T23:00:33;100231.00;;;9.80
33877;BMP180;20166;51.738;7.158;2023-12-29T23:03:21;100241.00;;;9.80
33877;BMP180;20166;51.738;7.158;2023-12-29T23:06:08;100232.00;;;9.70
33877;BMP180;20166;51.738;7.158;2023-12-29T23:08:54;100241.00;;;9.80
33877;BMP180;20166;51.738;7.158;2023-12-29T23:11:40;100237.00;;;9.80
33877;BMP180;20166;51.738;7.158;2023-12-29T23:14:27;100248.00;;;9.80
33877;BMP180;20166;51.738;7.158;2023-12-29T23:17:14;100245.00;;;9.80
33877;BMP180;20166;51.738;7.158;2023-12-29T23:20:02;100244.00;;;9.70
33877;BMP180;20166;51.738;7.158;2023-12-29T23:22:49;100248.00;;;9.80
33877;BMP180;20166;51.738;7.158;2023-12-29T23:25:35;100251.00;;;9.80
33877;BMP180;20166;51.738;7.158;2023-12-29T23:28:21;100243.00;;;9.70
33877;BMP180;20166;51.738;7.158;2023-12-29T23:31:08;100251.00;;;9.90
33877;BMP180;20166;51.738;7.158;2023-12-29T23:33:56;100246.00;;;9.80
33877;BMP180;20166;51.738;7.158;2023-12-29T23:36:42;100252.00;;;9.80
33877;BMP180;20166;51.738;7.158;2023-12-29T23:39:28;100257.00;;;9.90
33877;BMP180;20166;51.738;7.158;2023-12-29T23:42:14;100249.00;;;9.90
33877;BMP180;20166;51.738;7.158;2023-12-29T23:45:01;100249.00;;;9.90
33877;BMP180;20166;51.738;7.158;2023-12-29T23:47:47;100238.00;;;9.90
33877;BMP180;20166;51.738;7.158;2023-12-29T23:50:35;100247.00;;;9.90
33877;BMP180;20166;51.738;7.158;2023-12-29T23:53:21;100224.00;;;9.90
33877;BMP180;20166;51.738;7.158;2023-12-29T23:56:08;100208.00;;;9.80
33877;BMP180;20166;51.738;7.158;2023-12-29T23:58:55;100221.00;;;9.90
